sensor_id;sensor_type;location;lat;lon;timestamp;P1;durP1;ratioP1;P2;durP2;ratioP2
22138;SDS011;25815;52.582;13.408;2023-03-19T00:00:39;19.90;;;12.60;;
22138;SDS011;25815;52.582;13.408;2023-03-19T00:03:05;23.27;;;12.70;;
22138;SDS011;25815;52.582;13.408;2023-03-19T00:05:31;19.80;;;12.80;;
22138;SDS011;25815;52.582;13.408;2023-03-19T00:07:56;19.98;;;13.15;;
22138;SDS011;25815;52.582;13.408;2023-03-19T00:10:22;18.02;;;12.35;;
22138;SDS011;25815;52.582;13.408;2023-03-19T00:12:48;20.02;;;12.23;;
22138;SDS011;25815;52.582;13.408;2023-03-19T00:15:15;18.80;;;12.07;;
22138;SDS011;25815;52.582;13.408;2023-03-19T00:17:41;22.67;;;12.50;;
22138;SDS011;25815;52.582;13.408;2023-03-19T00:20:08;17.05;;;11.60;;
22138;SDS011;25815;52.582;13.408;2023-03-19T00:22:34;19.08;;;12.05;;
22138;SDS011;25815;52.582;13.408;2023-03-19T00:25:00;18.00;;;12.13;;
22138;SDS011;25815;52.582;13.408;2023-03-19T00:27:27;19.13;;;12.15;;
22138;SDS011;25815;52.582;13.408;2023-03-19T00:29:53;21.48;;;12.82;;
22138;SDS011;25815;52.582;13.408;2023-03-19T00:32:19;19.27;;;12.77;;
22138;SDS011;25815;52.582;13.408;2023-03-19T00:34:45;20.45;;;13.88;;
22138;SDS011;25815;52.582;13.408;2023-03-19T00:37:11;24.48;;;14.07;;
22138;SDS011;25815;52.582;13.408;2023-03-19T00:39:37;23.70;;;14.77;;
22138;SDS011;25815;52.582;13.408;2023-03-19T00:42:03;23.58;;;14.45;;
22138;SDS011;25815;52.582;13.408;2023-03-19T00:44:29;20.80;;;14.38;;
22138;SDS011;25815;52.582;13.408;2023-03-19T00:46:55;23.92;;;13.95;;
22138;SDS011;25815;52.582;13.408;2023-03-19T00:49:21;19.83;;;13.88;;
22138;SDS011;25815;52.582;13.408;2023-03-19T00:51:47;22.00;;;14.25;;
22138;SDS011;25815;52.582;13.408;2023-03-19T00:54:13;23.42;;;14.40;;
22138;SDS011;25815;52.582;13.408;2023-03-19T00:56:39;24.45;;;14.13;;
22138;SDS011;25815;52.582;13.408;2023-03-19T00:59:05;18.20;;;13.27;;
22138;SDS011;25815;52.582;13.408;2023-03-19T01:01:31;20.10;;;14.40;;
22138;SDS011;25815;52.582;13.408;2023-03-19T01:03:58;24.48;;;14.27;;
22138;SDS011;25815;52.582;13.408;2023-03-19T01:06:24;24.67;;;15.05;;
22138;SDS011;25815;52.582;13.408;2023-03-19T01:08:50;24.90;;;15.15;;
22138;SDS011;25815;52.582;13.408;2023-03-19T01:11:16;22.15;;;13.90;;
22138;SDS011;25815;52.582;13.408;2023-03-19T01:13:42;25.00;;;15.07;;
22138;SDS011;25815;52.582;13.408;2023-03-19T01:16:09;24.75;;;14.95;;
22138;SDS011;25815;52.582;13.408;2023-03-19T01:18:35;20.95;;;14.00;;
22138;SDS011;25815;52.582;13.408;2023-03-19T01:21:01;25.10;;;14.02;;
22138;SDS011;25815;52.582;13.408;2023-03-19T01:23:29;21.73;;;14.75;;
22138;SDS011;25815;52.582;13.408;2023-03-19T01:25:55;22.08;;;14.35;;
22138;SDS011;25815;52.582;13.408;2023-03-19T01:28:21;23.10;;;14.75;;
22138;SDS011;25815;52.582;13.408;2023-03-19T01:30:47;20.58;;;13.70;;
22138;SDS011;25815;52.582;13.408;2023-03-19T01:33:13;19.85;;;13.43;;
22138;SDS011;25815;52.582;13.408;2023-03-19T01:35:39;23.85;;;13.82;;
22138;SDS011;25815;52.582;13.408;2023-03-19T01:38:07;22.77;;;14.10;;
22138;SDS011;25815;52.582;13.408;2023-03-19T01:40:33;21.95;;;14.35;;
22138;SDS011;25815;52.582;13.408;2023-03-19T01:43:15;23.02;;;14.05;;
22138;SDS011;25815;52.582;13.408;2023-03-19T01:45:42;22.60;;;13.80;;
22138;SDS011;25815;52.582;13.408;2023-03-19T01:48:24;25.95;;;14.32;;
22138;SDS011;25815;52.582;13.408;2023-03-19T01:50:51;24.90;;;14.80;;
22138;SDS011;25815;52.582;13.408;2023-03-19T01:53:19;21.98;;;14.80;;
22138;SDS011;25815;52.582;13.408;2023-03-19T01:55:46;21.17;;;14.30;;
22138;SDS011;25815;52.582;13.408;2023-03-19T01:58:12;22.38;;;14.10;;
22138;SDS011;25815;52.582;13.408;2023-03-19T02:00:38;21.58;;;13.75;;
22138;SDS011;25815;52.582;13.408;2023-03-19T02:03:04;22.10;;;14.82;;
22138;SDS011;25815;52.582;13.408;2023-03-19T02:05:31;19.90;;;13.20;;
22138;SDS011;25815;52.582;13.408;2023-03-19T02:07:58;21.55;;;13.90;;
22138;SDS011;25815;52.582;13.408;2023-03-19T02:10:25;22.10;;;14.45;;
22138;SDS011;25815;52.582;13.408;2023-03-19T02:12:51;23.42;;;14.05;;
22138;SDS011;25815;52.582;13.408;2023-03-19T02:15:17;24.33;;;14.95;;
22138;SDS011;25815;52.582;13.408;2023-03-19T02:17:43;20.63;;;13.13;;
22138;SDS011;25815;52.582;13.408;2023-03-19T02:20:12;21.90;;;13.30;;
22138;SDS011;25815;52.582;13.408;2023-03-19T02:22:42;21.77;;;13.32;;
22138;SDS011;25815;52.582;13.408;2023-03-19T02:25:27;20.45;;;12.90;;
22138;SDS011;25815;52.582;13.408;2023-03-19T02:27:55;20.92;;;13.05;;
22138;SDS011;25815;52.582;13.408;2023-03-19T02:30:26;21.65;;;13.32;;
22138;SDS011;25815;52.582;13.408;2023-03-19T02:32:52;18.50;;;12.85;;
22138;SDS011;25815;52.582;13.408;2023-03-19T02:35:18;18.13;;;11.93;;
22138;SDS011;25815;52.582;13.408;2023-03-19T02:37:45;19.63;;;12.65;;
22138;SDS011;25815;52.582;13.408;2023-03-19T02:40:16;19.52;;;12.60;;
22138;SDS011;25815;52.582;13.408;2023-03-19T02:42:43;22.70;;;12.63;;
22138;SDS011;25815;52.582;13.408;2023-03-19T02:45:09;17.70;;;11.63;;
22138;SDS011;25815;52.582;13.408;2023-03-19T02:47:36;20.83;;;12.65;;
22138;SDS011;25815;52.582;13.408;2023-03-19T02:50:02;22.42;;;12.75;;
22138;SDS011;25815;52.582;13.408;2023-03-19T02:52:28;22.88;;;13.13;;
22138;SDS011;25815;52.582;13.408;2023-03-19T02:54:53;19.98;;;12.90;;
22138;SDS011;25815;52.582;13.408;2023-03-19T02:57:20;18.58;;;12.20;;
22138;SDS011;25815;52.582;13.408;2023-03-19T02:59:45;20.45;;;12.25;;
22138;SDS011;25815;52.582;13.408;2023-03-19T03:02:11;18.25;;;11.68;;
22138;SDS011;25815;52.582;13.408;2023-03-19T03:04:37;19.65;;;12.20;;
22138;SDS011;25815;52.582;13.408;2023-03-19T03:07:04;19.33;;;12.40;;
22138;SDS011;25815;52.582;13.408;2023-03-19T03:09:30;20.83;;;11.60;;
22138;SDS011;25815;52.582;13.408;2023-03-19T03:11:56;20.08;;;12.18;;
22138;SDS011;25815;52.582;13.408;2023-03-19T03:14:22;17.00;;;11.98;;
22138;SDS011;25815;52.582;13.408;2023-03-19T03:16:48;19.48;;;11.80;;
22138;SDS011;25815;52.582;13.408;2023-03-19T03:19:14;17.63;;;11.20;;
22138;SDS011;25815;52.582;13.408;2023-03-19T03:21:40;21.75;;;11.13;;
22138;SDS011;25815;52.582;13.408;2023-03-19T03:24:06;16.80;;;11.48;;
22138;SDS011;25815;52.582;13.408;2023-03-19T03:26:33;16.50;;;10.88;;
22138;SDS011;25815;52.582;13.408;2023-03-19T03:29:02;17.30;;;11.25;;
22138;SDS011;25815;52.582;13.408;2023-03-19T03:31:28;15.38;;;10.60;;
22138;SDS011;25815;52.582;13.408;2023-03-19T03:33:54;15.30;;;10.07;;
22138;SDS011;25815;52.582;13.408;2023-03-19T03:36:20;17.23;;;10.05;;
22138;SDS011;25815;52.582;13.408;2023-03-19T03:38:46;16.17;;;10.02;;
22138;SDS011;25815;52.582;13.408;2023-03-19T03:41:12;15.30;;;10.23;;
22138;SDS011;25815;52.582;13.408;2023-03-19T03:43:38;14.10;;;9.85;;
22138;SDS011;25815;52.582;13.408;2023-03-19T03:46:05;16.95;;;10.38;;
22138;SDS011;25815;52.582;13.408;2023-03-19T03:48:32;15.90;;;9.68;;
22138;SDS011;25815;52.582;13.408;2023-03-19T03:50:58;17.70;;;10.65;;
22138;SDS011;25815;52.582;13.408;2023-03-19T03:53:24;16.23;;;10.13;;
22138;SDS011;25815;52.582;13.408;2023-03-19T03:55:50;16.40;;;9.75;;
22138;SDS011;25815;52.582;13.408;2023-03-19T03:58:16;15.05;;;10.13;;
22138;SDS011;25815;52.582;13.408;2023-03-19T04:00:42;15.88;;;10.50;;
22138;SDS011;25815;52.582;13.408;2023-03-19T04:03:08;15.45;;;10.45;;
22138;SDS011;25815;52.582;13.408;2023-03-19T04:05:34;16.63;;;11.02;;
22138;SDS011;25815;52.582;13.408;2023-03-19T04:08:01;16.95;;;10.52;;
22138;SDS011;25815;52.582;13.408;2023-03-19T04:10:27;20.02;;;10.95;;
22138;SDS011;25815;52.582;13.408;2023-03-19T04:12:53;16.20;;;10.38;;
22138;SDS011;25815;52.582;13.408;2023-03-19T04:15:19;17.02;;;10.35;;
22138;SDS011;25815;52.582;13.408;2023-03-19T04:17:45;16.38;;;10.27;;
22138;SDS011;25815;52.582;13.408;2023-03-19T04:20:11;16.60;;;10.10;;
22138;SDS011;25815;52.582;13.408;2023-03-19T04:22:38;17.08;;;10.60;;
22138;SDS011;25815;52.582;13.408;2023-03-19T04:25:04;19.63;;;11.10;;
22138;SDS011;25815;52.582;13.408;2023-03-19T04:27:32;16.40;;;10.20;;
22138;SDS011;25815;52.582;13.408;2023-03-19T04:29:58;16.42;;;10.45;;
22138;SDS011;25815;52.582;13.408;2023-03-19T04:32:24;14.85;;;10.18;;
22138;SDS011;25815;52.582;13.408;2023-03-19T04:34:50;15.55;;;10.57;;
22138;SDS011;25815;52.582;13.408;2023-03-19T04:37:17;16.83;;;11.00;;
22138;SDS011;25815;52.582;13.408;2023-03-19T04:39:43;17.02;;;10.95;;
22138;SDS011;25815;52.582;13.408;2023-03-19T04:42:09;18.27;;;11.35;;
22138;SDS011;25815;52.582;13.408;2023-03-19T04:44:35;18.17;;;11.02;;
22138;SDS011;25815;52.582;13.408;2023-03-19T04:47:02;17.05;;;10.82;;
22138;SDS011;25815;52.582;13.408;2023-03-19T04:49:28;19.52;;;11.15;;
22138;SDS011;25815;52.582;13.408;2023-03-19T04:51:57;17.80;;;11.13;;
22138;SDS011;25815;52.582;13.408;2023-03-19T04:54:23;17.17;;;11.25;;
22138;SDS011;25815;52.582;13.408;2023-03-19T04:56:49;19.17;;;11.45;;
22138;SDS011;25815;52.582;13.408;2023-03-19T04:59:17;18.42;;;11.55;;
22138;SDS011;25815;52.582;13.408;2023-03-19T05:01:42;20.85;;;11.98;;
22138;SDS011;25815;52.582;13.408;2023-03-19T05:04:08;18.13;;;11.57;;
22138;SDS011;25815;52.582;13.408;2023-03-19T05:06:35;17.58;;;11.68;;
22138;SDS011;25815;52.582;13.408;2023-03-19T05:09:02;20.25;;;11.50;;
22138;SDS011;25815;52.582;13.408;2023-03-19T05:11:29;18.08;;;11.77;;
22138;SDS011;25815;52.582;13.408;2023-03-19T05:13:55;18.65;;;11.18;;
22138;SDS011;25815;52.582;13.408;2023-03-19T05:16:21;23.80;;;11.85;;
22138;SDS011;25815;52.582;13.408;2023-03-19T05:18:47;21.05;;;11.80;;
22138;SDS011;25815;52.582;13.408;2023-03-19T05:21:13;18.52;;;12.00;;
22138;SDS011;25815;52.582;13.408;2023-03-19T05:23:39;21.60;;;12.80;;
22138;SDS011;25815;52.582;13.408;2023-03-19T05:26:05;18.27;;;12.07;;
22138;SDS011;25815;52.582;13.408;2023-03-19T05:28:32;20.30;;;12.98;;
22138;SDS011;25815;52.582;13.408;2023-03-19T05:30:58;20.38;;;12.68;;
22138;SDS011;25815;52.582;13.408;2023-03-19T05:33:24;23.55;;;13.50;;
22138;SDS011;25815;52.582;13.408;2023-03-19T05:35:50;18.67;;;12.88;;
22138;SDS011;25815;52.582;13.408;2023-03-19T05:38:17;19.85;;;12.90;;
22138;SDS011;25815;52.582;13.408;2023-03-19T05:40:43;18.58;;;12.80;;
22138;SDS011;25815;52.582;13.408;2023-03-19T05:43:10;23.75;;;14.10;;
22138;SDS011;25815;52.582;13.408;2023-03-19T05:45:36;20.58;;;13.73;;
22138;SDS011;25815;52.582;13.408;2023-03-19T05:48:03;21.63;;;13.25;;
22138;SDS011;25815;52.582;13.408;2023-03-19T05:50:30;20.85;;;13.85;;
22138;SDS011;25815;52.582;13.408;2023-03-19T05:52:57;21.42;;;13.73;;
22138;SDS011;25815;52.582;13.408;2023-03-19T05:55:23;21.90;;;13.60;;
22138;SDS011;25815;52.582;13.408;2023-03-19T05:57:49;21.35;;;13.30;;
22138;SDS011;25815;52.582;13.408;2023-03-19T06:00:16;17.95;;;12.95;;
22138;SDS011;25815;52.582;13.408;2023-03-19T06:02:42;21.92;;;13.57;;
22138;SDS011;25815;52.582;13.408;2023-03-19T06:05:08;20.20;;;12.73;;
22138;SDS011;25815;52.582;13.408;2023-03-19T06:07:35;18.35;;;12.55;;
22138;SDS011;25815;52.582;13.408;2023-03-19T06:10:01;23.20;;;13.70;;
22138;SDS011;25815;52.582;13.408;2023-03-19T06:12:28;18.48;;;12.18;;
22138;SDS011;25815;52.582;13.408;2023-03-19T06:14:55;20.88;;;12.15;;
22138;SDS011;25815;52.582;13.408;2023-03-19T06:17:21;20.38;;;12.45;;
22138;SDS011;25815;52.582;13.408;2023-03-19T06:19:47;17.20;;;12.40;;
22138;SDS011;25815;52.582;13.408;2023-03-19T06:22:13;16.60;;;11.77;;
22138;SDS011;25815;52.582;13.408;2023-03-19T06:24:39;17.90;;;11.25;;
22138;SDS011;25815;52.582;13.408;2023-03-19T06:27:05;18.60;;;12.15;;
22138;SDS011;25815;52.582;13.408;2023-03-19T06:29:31;16.73;;;11.68;;
22138;SDS011;25815;52.582;13.408;2023-03-19T06:31:57;15.93;;;11.50;;
22138;SDS011;25815;52.582;13.408;2023-03-19T06:34:23;17.40;;;10.73;;
22138;SDS011;25815;52.582;13.408;2023-03-19T06:36:49;13.35;;;10.27;;
22138;SDS011;25815;52.582;13.408;2023-03-19T06:39:17;15.20;;;10.35;;
22138;SDS011;25815;52.582;13.408;2023-03-19T06:41:43;18.77;;;10.60;;
22138;SDS011;25815;52.582;13.408;2023-03-19T06:44:09;16.98;;;10.35;;
22138;SDS011;25815;52.582;13.408;2023-03-19T06:46:35;17.98;;;10.68;;
22138;SDS011;25815;52.582;13.408;2023-03-19T06:49:01;18.38;;;11.68;;
22138;SDS011;25815;52.582;13.408;2023-03-19T06:51:27;16.20;;;10.63;;
22138;SDS011;25815;52.582;13.408;2023-03-19T06:53:53;12.70;;;9.90;;
22138;SDS011;25815;52.582;13.408;2023-03-19T06:56:19;14.90;;;9.52;;
22138;SDS011;25815;52.582;13.408;2023-03-19T06:58:45;13.30;;;9.48;;
22138;SDS011;25815;52.582;13.408;2023-03-19T07:01:11;16.42;;;11.10;;
22138;SDS011;25815;52.582;13.408;2023-03-19T07:03:37;14.75;;;11.18;;
22138;SDS011;25815;52.582;13.408;2023-03-19T07:06:03;16.90;;;10.80;;
22138;SDS011;25815;52.582;13.408;2023-03-19T07:08:29;14.63;;;10.20;;
22138;SDS011;25815;52.582;13.408;2023-03-19T07:10:55;17.15;;;10.60;;
22138;SDS011;25815;52.582;13.408;2023-03-19T07:13:22;14.15;;;9.30;;
22138;SDS011;25815;52.582;13.408;2023-03-19T07:15:48;14.35;;;9.90;;
22138;SDS011;25815;52.582;13.408;2023-03-19T07:18:14;16.10;;;10.82;;
22138;SDS011;25815;52.582;13.408;2023-03-19T07:20:40;13.80;;;9.48;;
22138;SDS011;25815;52.582;13.408;2023-03-19T07:23:06;16.65;;;11.30;;
22138;SDS011;25815;52.582;13.408;2023-03-19T07:25:32;15.38;;;10.90;;
22138;SDS011;25815;52.582;13.408;2023-03-19T07:27:57;18.98;;;11.77;;
22138;SDS011;25815;52.582;13.408;2023-03-19T07:30:23;19.10;;;12.82;;
22138;SDS011;25815;52.582;13.408;2023-03-19T07:32:49;17.52;;;10.55;;
22138;SDS011;25815;52.582;13.408;2023-03-19T07:35:15;18.83;;;12.32;;
22138;SDS011;25815;52.582;13.408;2023-03-19T07:37:41;16.75;;;12.27;;
22138;SDS011;25815;52.582;13.408;2023-03-19T07:40:08;25.67;;;13.60;;
22138;SDS011;25815;52.582;13.408;2023-03-19T07:42:34;98.45;;;17.88;;
22138;SDS011;25815;52.582;13.408;2023-03-19T07:45:00;20.83;;;13.27;;
22138;SDS011;25815;52.582;13.408;2023-03-19T07:47:26;26.08;;;14.75;;
22138;SDS011;25815;52.582;13.408;2023-03-19T07:49:52;19.58;;;13.68;;
22138;SDS011;25815;52.582;13.408;2023-03-19T07:52:18;30.25;;;13.88;;
22138;SDS011;25815;52.582;13.408;2023-03-19T07:54:45;18.85;;;13.88;;
22138;SDS011;25815;52.582;13.408;2023-03-19T07:57:10;20.95;;;14.02;;
22138;SDS011;25815;52.582;13.408;2023-03-19T07:59:37;22.63;;;13.45;;
22138;SDS011;25815;52.582;13.408;2023-03-19T08:02:02;44.90;;;15.30;;
22138;SDS011;25815;52.582;13.408;2023-03-19T08:04:28;28.15;;;15.45;;
22138;SDS011;25815;52.582;13.408;2023-03-19T08:06:55;23.45;;;15.90;;
22138;SDS011;25815;52.582;13.408;2023-03-19T08:09:21;23.23;;;15.15;;
22138;SDS011;25815;52.582;13.408;2023-03-19T08:11:47;26.50;;;17.42;;
22138;SDS011;25815;52.582;13.408;2023-03-19T08:14:13;18.00;;;13.75;;
22138;SDS011;25815;52.582;13.408;2023-03-19T08:16:43;20.30;;;13.02;;
22138;SDS011;25815;52.582;13.408;2023-03-19T08:19:09;20.05;;;13.50;;
22138;SDS011;25815;52.582;13.408;2023-03-19T08:21:34;41.90;;;14.57;;
22138;SDS011;25815;52.582;13.408;2023-03-19T08:24:01;47.75;;;15.73;;
22138;SDS011;25815;52.582;13.408;2023-03-19T08:26:27;20.85;;;14.70;;
22138;SDS011;25815;52.582;13.408;2023-03-19T08:28:53;23.45;;;13.65;;
22138;SDS011;25815;52.582;13.408;2023-03-19T08:31:19;19.00;;;13.15;;
22138;SDS011;25815;52.582;13.408;2023-03-19T08:33:45;18.17;;;12.60;;
22138;SDS011;25815;52.582;13.408;2023-03-19T08:36:11;18.90;;;12.45;;
22138;SDS011;25815;52.582;13.408;2023-03-19T08:38:38;21.08;;;13.80;;
22138;SDS011;25815;52.582;13.408;2023-03-19T08:41:04;22.77;;;14.55;;
22138;SDS011;25815;52.582;13.408;2023-03-19T08:43:30;20.92;;;15.40;;
22138;SDS011;25815;52.582;13.408;2023-03-19T08:45:56;24.85;;;15.55;;
22138;SDS011;25815;52.582;13.408;2023-03-19T08:48:22;23.20;;;15.43;;
22138;SDS011;25815;52.582;13.408;2023-03-19T08:50:55;26.00;;;16.75;;
22138;SDS011;25815;52.582;13.408;2023-03-19T08:53:22;23.55;;;15.50;;
22138;SDS011;25815;52.582;13.408;2023-03-19T08:55:51;27.02;;;17.02;;
22138;SDS011;25815;52.582;13.408;2023-03-19T08:58:17;37.22;;;18.85;;
22138;SDS011;25815;52.582;13.408;2023-03-19T09:00:43;28.73;;;18.05;;
22138;SDS011;25815;52.582;13.408;2023-03-19T09:03:10;25.30;;;18.27;;
22138;SDS011;25815;52.582;13.408;2023-03-19T09:05:35;31.50;;;18.27;;
22138;SDS011;25815;52.582;13.408;2023-03-19T09:08:01;27.52;;;17.95;;
22138;SDS011;25815;52.582;13.408;2023-03-19T09:10:27;27.20;;;18.35;;
22138;SDS011;25815;52.582;13.408;2023-03-19T09:12:53;36.92;;;19.25;;
22138;SDS011;25815;52.582;13.408;2023-03-19T09:15:19;38.58;;;19.45;;
22138;SDS011;25815;52.582;13.408;2023-03-19T09:17:45;29.58;;;18.98;;
22138;SDS011;25815;52.582;13.408;2023-03-19T09:20:11;31.85;;;19.58;;
22138;SDS011;25815;52.582;13.408;2023-03-19T09:22:37;30.83;;;19.13;;
22138;SDS011;25815;52.582;13.408;2023-03-19T09:25:03;29.27;;;19.17;;
22138;SDS011;25815;52.582;13.408;2023-03-19T09:27:29;27.23;;;19.13;;
22138;SDS011;25815;52.582;13.408;2023-03-19T09:29:55;27.85;;;18.92;;
22138;SDS011;25815;52.582;13.408;2023-03-19T09:32:21;30.50;;;19.38;;
22138;SDS011;25815;52.582;13.408;2023-03-19T09:34:48;32.13;;;19.77;;
22138;SDS011;25815;52.582;13.408;2023-03-19T09:37:14;32.33;;;20.73;;
22138;SDS011;25815;52.582;13.408;2023-03-19T09:39:40;30.70;;;19.80;;
22138;SDS011;25815;52.582;13.408;2023-03-19T09:44:52;28.02;;;19.40;;
22138;SDS011;25815;52.582;13.408;2023-03-19T09:47:23;29.55;;;19.80;;
22138;SDS011;25815;52.582;13.408;2023-03-19T09:49:50;29.25;;;19.65;;
22138;SDS011;25815;52.582;13.408;2023-03-19T09:54:50;31.85;;;21.63;;
22138;SDS011;25815;52.582;13.408;2023-03-19T09:57:16;32.25;;;21.23;;
22138;SDS011;25815;52.582;13.408;2023-03-19T09:59:42;31.85;;;21.40;;
22138;SDS011;25815;52.582;13.408;2023-03-19T10:05:00;33.90;;;21.23;;
22138;SDS011;25815;52.582;13.408;2023-03-19T10:12:56;26.60;;;19.50;;
22138;SDS011;25815;52.582;13.408;2023-03-19T10:15:28;25.55;;;18.85;;
22138;SDS011;25815;52.582;13.408;2023-03-19T10:18:04;29.75;;;19.70;;
22138;SDS011;25815;52.582;13.408;2023-03-19T10:20:34;26.40;;;18.42;;
22138;SDS011;25815;52.582;13.408;2023-03-19T10:23:07;24.85;;;17.40;;
22138;SDS011;25815;52.582;13.408;2023-03-19T10:25:35;27.83;;;18.75;;
22138;SDS011;25815;52.582;13.408;2023-03-19T10:28:14;24.80;;;16.88;;
22138;SDS011;25815;52.582;13.408;2023-03-19T10:30:41;23.30;;;17.05;;
22138;SDS011;25815;52.582;13.408;2023-03-19T10:35:43;22.33;;;16.52;;
22138;SDS011;25815;52.582;13.408;2023-03-19T10:38:15;28.42;;;17.60;;
22138;SDS011;25815;52.582;13.408;2023-03-19T10:40:47;24.17;;;17.17;;
22138;SDS011;25815;52.582;13.408;2023-03-19T10:43:16;28.13;;;18.63;;
22138;SDS011;25815;52.582;13.408;2023-03-19T10:45:42;26.30;;;18.38;;
22138;SDS011;25815;52.582;13.408;2023-03-19T10:48:12;30.05;;;19.00;;
22138;SDS011;25815;52.582;13.408;2023-03-19T10:55:50;23.98;;;16.10;;
22138;SDS011;25815;52.582;13.408;2023-03-19T10:58:19;24.52;;;17.55;;
22138;SDS011;25815;52.582;13.408;2023-03-19T11:00:46;30.80;;;20.25;;
22138;SDS011;25815;52.582;13.408;2023-03-19T11:03:29;23.73;;;16.88;;
22138;SDS011;25815;52.582;13.408;2023-03-19T11:06:02;21.42;;;16.73;;
22138;SDS011;25815;52.582;13.408;2023-03-19T11:08:28;21.83;;;16.52;;
22138;SDS011;25815;52.582;13.408;2023-03-19T11:10:54;24.88;;;17.23;;
22138;SDS011;25815;52.582;13.408;2023-03-19T11:13:22;20.05;;;14.30;;
22138;SDS011;25815;52.582;13.408;2023-03-19T11:15:48;20.58;;;13.90;;
22138;SDS011;25815;52.582;13.408;2023-03-19T11:18:18;22.10;;;15.05;;
22138;SDS011;25815;52.582;13.408;2023-03-19T11:20:47;19.35;;;15.45;;
22138;SDS011;25815;52.582;13.408;2023-03-19T11:23:15;21.58;;;15.02;;
22138;SDS011;25815;52.582;13.408;2023-03-19T11:25:45;21.08;;;14.23;;
22138;SDS011;25815;52.582;13.408;2023-03-19T11:28:12;17.20;;;12.55;;
22138;SDS011;25815;52.582;13.408;2023-03-19T11:30:40;18.05;;;13.25;;
22138;SDS011;25815;52.582;13.408;2023-03-19T11:33:24;17.45;;;12.77;;
22138;SDS011;25815;52.582;13.408;2023-03-19T11:36:09;17.20;;;11.90;;
22138;SDS011;25815;52.582;13.408;2023-03-19T11:38:56;18.48;;;12.57;;
22138;SDS011;25815;52.582;13.408;2023-03-19T11:56:47;14.73;;;10.02;;
22138;SDS011;25815;52.582;13.408;2023-03-19T11:59:28;12.13;;;9.75;;
22138;SDS011;25815;52.582;13.408;2023-03-19T12:05:02;12.90;;;9.20;;
22138;SDS011;25815;52.582;13.408;2023-03-19T12:07:36;12.73;;;8.43;;
22138;SDS011;25815;52.582;13.408;2023-03-19T12:15:19;12.70;;;9.40;;
22138;SDS011;25815;52.582;13.408;2023-03-19T12:20:19;12.38;;;8.23;;
22138;SDS011;25815;52.582;13.408;2023-03-19T12:27:54;12.07;;;8.35;;
22138;SDS011;25815;52.582;13.408;2023-03-19T12:33:09;10.82;;;8.23;;
22138;SDS011;25815;52.582;13.408;2023-03-19T12:35:39;11.07;;;8.52;;
22138;SDS011;25815;52.582;13.408;2023-03-19T12:40:33;10.82;;;7.78;;
22138;SDS011;25815;52.582;13.408;2023-03-19T12:43:03;11.02;;;7.63;;
22138;SDS011;25815;52.582;13.408;2023-03-19T12:45:31;10.27;;;7.63;;
22138;SDS011;25815;52.582;13.408;2023-03-19T12:48:15;12.07;;;8.65;;
22138;SDS011;25815;52.582;13.408;2023-03-19T12:50:43;13.13;;;9.30;;
22138;SDS011;25815;52.582;13.408;2023-03-19T12:53:15;11.60;;;8.80;;
22138;SDS011;25815;52.582;13.408;2023-03-19T12:55:44;13.18;;;9.02;;
22138;SDS011;25815;52.582;13.408;2023-03-19T12:58:15;9.18;;;7.70;;
22138;SDS011;25815;52.582;13.408;2023-03-19T13:00:48;11.93;;;8.50;;
22138;SDS011;25815;52.582;13.408;2023-03-19T13:03:18;11.25;;;7.93;;
22138;SDS011;25815;52.582;13.408;2023-03-19T13:05:54;11.63;;;8.38;;
22138;SDS011;25815;52.582;13.408;2023-03-19T13:08:24;9.77;;;8.30;;
22138;SDS011;25815;52.582;13.408;2023-03-19T13:10:51;12.13;;;8.38;;
22138;SDS011;25815;52.582;13.408;2023-03-19T13:13:27;12.13;;;8.18;;
22138;SDS011;25815;52.582;13.408;2023-03-19T13:15:55;11.27;;;8.27;;
22138;SDS011;25815;52.582;13.408;2023-03-19T13:18:34;10.40;;;7.43;;
22138;SDS011;25815;52.582;13.408;2023-03-19T13:23:32;11.30;;;7.87;;
22138;SDS011;25815;52.582;13.408;2023-03-19T13:25:59;10.90;;;7.35;;
22138;SDS011;25815;52.582;13.408;2023-03-19T13:28:32;11.32;;;7.80;;
22138;SDS011;25815;52.582;13.408;2023-03-19T13:31:02;11.75;;;7.72;;
22138;SDS011;25815;52.582;13.408;2023-03-19T13:33:29;11.15;;;7.78;;
22138;SDS011;25815;52.582;13.408;2023-03-19T13:35:57;10.23;;;7.45;;
22138;SDS011;25815;52.582;13.408;2023-03-19T13:40:56;10.85;;;7.82;;
22138;SDS011;25815;52.582;13.408;2023-03-19T13:45:51;10.93;;;7.30;;
22138;SDS011;25815;52.582;13.408;2023-03-19T13:50:53;12.18;;;7.70;;
22138;SDS011;25815;52.582;13.408;2023-03-19T13:55:57;9.60;;;7.32;;
22138;SDS011;25815;52.582;13.408;2023-03-19T13:58:24;10.25;;;7.55;;
22138;SDS011;25815;52.582;13.408;2023-03-19T14:01:10;10.27;;;7.88;;
22138;SDS011;25815;52.582;13.408;2023-03-19T14:03:40;12.00;;;7.68;;
22138;SDS011;25815;52.582;13.408;2023-03-19T14:06:28;10.02;;;7.70;;
22138;SDS011;25815;52.582;13.408;2023-03-19T14:08:56;8.73;;;7.45;;
22138;SDS011;25815;52.582;13.408;2023-03-19T14:11:23;12.02;;;8.10;;
22138;SDS011;25815;52.582;13.408;2023-03-19T14:13:50;10.75;;;8.27;;
22138;SDS011;25815;52.582;13.408;2023-03-19T14:16:30;13.15;;;7.80;;
22138;SDS011;25815;52.582;13.408;2023-03-19T14:18:57;10.32;;;8.07;;
22138;SDS011;25815;52.582;13.408;2023-03-19T14:24:19;9.50;;;7.68;;
22138;SDS011;25815;52.582;13.408;2023-03-19T14:26:43;11.57;;;7.15;;
22138;SDS011;25815;52.582;13.408;2023-03-19T14:29:12;8.75;;;7.07;;
22138;SDS011;25815;52.582;13.408;2023-03-19T14:34:11;11.30;;;7.80;;
22138;SDS011;25815;52.582;13.408;2023-03-19T14:36:51;11.18;;;7.32;;
22138;SDS011;25815;52.582;13.408;2023-03-19T14:39:25;11.93;;;7.57;;
22138;SDS011;25815;52.582;13.408;2023-03-19T14:42:05;9.52;;;7.78;;
22138;SDS011;25815;52.582;13.408;2023-03-19T14:47:15;10.18;;;7.57;;
22138;SDS011;25815;52.582;13.408;2023-03-19T14:52:35;9.65;;;7.90;;
22138;SDS011;25815;52.582;13.408;2023-03-19T14:55:11;10.30;;;8.38;;
22138;SDS011;25815;52.582;13.408;2023-03-19T14:57:37;10.30;;;7.80;;
22138;SDS011;25815;52.582;13.408;2023-03-19T15:00:05;12.05;;;8.15;;
22138;SDS011;25815;52.582;13.408;2023-03-19T15:03:07;11.45;;;7.55;;
22138;SDS011;25815;52.582;13.408;2023-03-19T15:05:27;11.48;;;8.20;;
22138;SDS011;25815;52.582;13.408;2023-03-19T15:08:04;12.07;;;7.47;;
22138;SDS011;25815;52.582;13.408;2023-03-19T15:10:33;11.60;;;7.78;;
22138;SDS011;25815;52.582;13.408;2023-03-19T15:13:09;11.10;;;7.50;;
22138;SDS011;25815;52.582;13.408;2023-03-19T15:16:25;11.35;;;7.30;;
22138;SDS011;25815;52.582;13.408;2023-03-19T15:18:25;10.20;;;7.45;;
22138;SDS011;25815;52.582;13.408;2023-03-19T15:20:51;9.35;;;7.10;;
22138;SDS011;25815;52.582;13.408;2023-03-19T15:23:19;10.20;;;7.32;;
22138;SDS011;25815;52.582;13.408;2023-03-19T15:26:01;15.10;;;7.70;;
22138;SDS011;25815;52.582;13.408;2023-03-19T15:28:28;8.43;;;6.28;;
22138;SDS011;25815;52.582;13.408;2023-03-19T15:31:02;11.60;;;6.80;;
22138;SDS011;25815;52.582;13.408;2023-03-19T15:33:37;10.27;;;6.45;;
22138;SDS011;25815;52.582;13.408;2023-03-19T15:36:15;8.23;;;6.38;;